Time;durP1;ratioP1;P1;durP2;ratioP2;P2;SDS_P1;SDS_P2;PMS_P1;PMS_P2;Temp;Humidity;BMP_temperature;BMP_pressure;BME280_temperature;BME280_humidity;BME280_pressure;Samples;Min_cycle;Max_cycle;Signal;HPM_P1;HPM_P2
2023/07/25 00:00:26;;;;;;;6.10;4.95;;;22.40;63.80;;;;;;4976127;28;20062;-62
2023/07/25 00:02:51;;;;;;;6.20;4.97;;;22.30;63.80;;;;;;4975764;28;20031;-62
2023/07/25 00:05:17;;;;;;;6.10;5.00;;;22.30;63.90;;;;;;4975770;28;20091;-62
2023/07/25 00:07:43;;;;;;;7.55;6.00;;;22.20;63.90;;;;;;4975752;28;20033;-59
2023/07/25 00:10:09;;;;;;;6.95;5.90;;;22.20;64.00;;;;;;4975760;28;20019;-59
2023/07/25 00:12:35;;;;;;;5.93;5.32;;;22.20;64.10;;;;;;4975613;28;20086;-59
2023/07/25 00:15:02;;;;;;;7.65;6.32;;;22.20;64.10;;;;;;4975568;28;20049;-59
2023/07/25 00:17:27;;;;;;;6.93;5.15;;;22.20;64.20;;;;;;4975823;28;20486;-58
2023/07/25 00:19:53;;;;;;;7.30;5.53;;;22.10;64.10;;;;;;4975485;28;20165;-59
2023/07/25 00:22:18;;;;;;;8.23;5.93;;;22.10;64.20;;;;;;4974120;28;20035;-59
2023/07/25 00:24:44;;;;;;;6.70;5.85;;;22.10;64.20;;;;;;4974438;28;20497;-59
2023/07/25 00:27:10;;;;;;;7.18;6.20;;;22.10;64.40;;;;;;4975122;28;20112;-58
2023/07/25 00:29:35;;;;;;;7.25;6.05;;;22.10;64.40;;;;;;4975313;28;20105;-59
2023/07/25 00:32:01;;;;;;;7.43;6.10;;;22.00;64.50;;;;;;4975285;28;20122;-59
2023/07/25 00:34:27;;;;;;;6.72;5.75;;;22.00;64.50;;;;;;4975236;28;20031;-58
2023/07/25 00:36:52;;;;;;;7.85;6.43;;;22.10;64.60;;;;;;4975325;28;20077;-59
2023/07/25 00:39:18;;;;;;;7.60;6.20;;;22.00;64.60;;;;;;4975049;28;20026;-59
2023/07/25 00:41:43;;;;;;;7.70;6.78;;;22.00;64.60;;;;;;4976339;28;20042;-60
2023/07/25 00:44:09;;;;;;;7.47;6.63;;;22.00;64.70;;;;;;4974103;28;20030;-60
2023/07/25 00:46:35;;;;;;;7.80;6.47;;;22.00;64.80;;;;;;4975223;28;20054;-60
2023/07/25 00:49:01;;;;;;;9.38;7.20;;;22.00;64.80;;;;;;4974618;28;20027;-60
2023/07/25 00:51:28;;;;;;;7.75;6.35;;;22.00;64.90;;;;;;4974840;28;20027;-60
2023/07/25 00:53:55;;;;;;;8.88;7.47;;;22.00;65.00;;;;;;4974933;28;20038;-60
2023/07/25 00:56:21;;;;;;;13.13;7.05;;;22.00;65.20;;;;;;4974799;28;20027;-60
2023/07/25 00:58:47;;;;;;;7.47;6.65;;;22.00;65.30;;;;;;4974649;28;20125;-60
2023/07/25 01:01:12;;;;;;;8.80;6.55;;;22.00;65.40;;;;;;4963101;28;20039;-60
2023/07/25 01:03:39;;;;;;;6.90;5.93;;;21.90;65.40;;;;;;4955430;29;20031;-60
2023/07/25 01:06:09;;;;;;;6.82;5.85;;;21.90;65.50;;;;;;4955402;29;20019;-60
2023/07/25 01:08:49;;;;;;;7.40;5.43;;;21.90;65.70;;;;;;4937943;28;20481;-60
2023/07/25 01:11:15;;;;;;;6.32;5.40;;;21.90;65.80;;;;;;4955540;29;20039;-59
2023/07/25 01:13:41;;;;;;;5.93;4.97;;;21.90;65.90;;;;;;4955418;29;20030;-60
2023/07/25 01:16:09;;;;;;;6.95;5.03;;;21.90;66.00;;;;;;4955094;29;20114;-60
2023/07/25 01:18:36;;;;;;;8.63;5.28;;;21.90;66.10;;;;;;4955232;29;20059;-59
2023/07/25 01:21:02;;;;;;;5.40;4.82;;;21.90;66.20;;;;;;4955328;29;20604;-60
2023/07/25 01:23:30;;;;;;;5.70;5.10;;;21.90;66.30;;;;;;4955082;29;20031;-60
2023/07/25 01:25:55;;;;;;;6.57;5.38;;;21.90;66.40;;;;;;4955224;29;20030;-60
2023/07/25 01:28:21;;;;;;;6.63;5.50;;;21.90;66.50;;;;;;4954981;29;20036;-59
2023/07/25 01:30:47;;;;;;;6.43;5.22;;;21.90;66.60;;;;;;4962122;28;20468;-59
2023/07/25 01:33:13;;;;;;;5.30;4.75;;;21.80;66.50;;;;;;4974235;28;20026;-60
2023/07/25 01:35:38;;;;;;;5.90;4.85;;;21.80;66.60;;;;;;4974117;28;20495;-59
2023/07/25 01:38:04;;;;;;;6.65;5.75;;;21.80;66.80;;;;;;4956694;28;20034;-60
2023/07/25 01:40:29;;;;;;;6.38;5.07;;;21.80;67.00;;;;;;4973972;28;20161;-60
2023/07/25 01:42:55;;;;;;;6.80;5.10;;;21.80;67.20;;;;;;4973959;28;20035;-62
2023/07/25 01:45:21;;;;;;;5.90;4.93;;;21.80;67.10;;;;;;4973974;28;20023;-61
2023/07/25 01:47:46;;;;;;;7.25;5.13;;;21.80;67.30;;;;;;4974064;28;20019;-60
2023/07/25 01:50:12;;;;;;;6.07;5.15;;;21.70;67.40;;;;;;4973791;28;20022;-61
2023/07/25 01:52:38;;;;;;;7.85;6.00;;;21.80;67.50;;;;;;4973745;28;20546;-61
2023/07/25 01:55:04;;;;;;;6.00;5.30;;;21.70;67.60;;;;;;4973860;28;20113;-61
2023/07/25 01:57:29;;;;;;;7.22;5.32;;;21.80;67.70;;;;;;4973662;28;20481;-60
2023/07/25 01:59:57;;;;;;;4.95;4.45;;;21.70;67.80;;;;;;4973541;28;20119;-61
2023/07/25 02:02:23;;;;;;;7.05;5.30;;;21.70;67.90;;;;;;4973600;28;20027;-61
2023/07/25 02:04:48;;;;;;;6.57;5.60;;;21.70;68.00;;;;;;4973563;28;20023;-61
2023/07/25 02:07:14;;;;;;;8.10;5.32;;;21.70;68.10;;;;;;4972381;28;20023;-60
2023/07/25 02:09:40;;;;;;;6.57;5.68;;;21.70;68.30;;;;;;4971588;28;20031;-59
2023/07/25 02:12:07;;;;;;;7.30;6.20;;;21.70;68.30;;;;;;4971585;28;20487;-60
2023/07/25 02:14:32;;;;;;;7.65;6.40;;;21.70;68.50;;;;;;4971731;28;20027;-61
2023/07/25 02:16:58;;;;;;;7.13;5.95;;;21.70;68.60;;;;;;4971447;28;20046;-61
2023/07/25 02:19:24;;;;;;;7.78;6.40;;;21.70;68.50;;;;;;4971640;28;20026;-61
2023/07/25 02:21:49;;;;;;;6.47;5.72;;;21.70;68.70;;;;;;4971611;28;20033;-61
2023/07/25 02:24:15;;;;;;;6.25;5.57;;;21.70;68.80;;;;;;4973272;28;20093;-61
2023/07/25 02:26:40;;;;;;;6.55;5.57;;;21.70;68.90;;;;;;4972068;28;20027;-61
2023/07/25 02:29:06;;;;;;;7.32;5.80;;;21.70;68.90;;;;;;4973498;28;20031;-60
2023/07/25 02:31:32;;;;;;;6.65;5.45;;;21.70;69.00;;;;;;4973162;28;20027;-61
2023/07/25 02:33:57;;;;;;;5.93;5.10;;;21.70;69.00;;;;;;4972958;28;20031;-60
2023/07/25 02:36:23;;;;;;;6.75;5.68;;;21.70;69.10;;;;;;4973152;28;20062;-61
2023/07/25 02:38:48;;;;;;;5.97;5.05;;;21.70;69.20;;;;;;4973067;28;20050;-59
2023/07/25 02:41:15;;;;;;;7.20;5.45;;;21.70;70.00;;;;;;4973081;28;20054;-61
2023/07/25 02:43:41;;;;;;;6.03;5.15;;;21.70;69.50;;;;;;4973030;28;20037;-60
2023/07/25 02:46:06;;;;;;;8.63;6.68;;;21.70;69.50;;;;;;4971603;28;20031;-63
2023/07/25 02:48:32;;;;;;;6.85;5.95;;;21.80;69.60;;;;;;4972835;28;20030;-60
2023/07/25 02:50:58;;;;;;;7.50;5.85;;;21.70;69.60;;;;;;4973130;28;20037;-60
2023/07/25 02:53:24;;;;;;;8.60;6.10;;;21.80;69.70;;;;;;4972868;28;20395;-60
2023/07/25 02:55:49;;;;;;;7.15;6.43;;;21.80;69.70;;;;;;4972924;28;20038;-60
2023/07/25 02:58:15;;;;;;;6.45;5.55;;;21.80;69.80;;;;;;4972638;28;20536;-59
2023/07/25 03:00:40;;;;;;;6.47;5.78;;;21.80;69.90;;;;;;4972730;28;20030;-59
2023/07/25 03:03:06;;;;;;;7.45;6.68;;;21.80;69.90;;;;;;4972682;28;20058;-59
2023/07/25 03:05:32;;;;;;;8.40;6.35;;;21.80;70.10;;;;;;4972820;28;20031;-59
2023/07/25 03:07:57;;;;;;;6.47;5.63;;;21.90;70.20;;;;;;4972255;28;20365;-59
2023/07/25 03:10:23;;;;;;;7.03;5.90;;;21.90;70.20;;;;;;4972681;28;20050;-59
2023/07/25 03:12:49;;;;;;;7.55;5.88;;;21.90;70.30;;;;;;4972670;28;20412;-59
2023/07/25 03:15:15;;;;;;;6.32;5.22;;;21.90;70.30;;;;;;4972943;28;20046;-59
2023/07/25 03:17:40;;;;;;;7.50;5.68;;;22.00;70.50;;;;;;4972493;28;20027;-59
2023/07/25 03:20:07;;;;;;;6.85;5.28;;;22.00;70.40;;;;;;4972483;28;20796;-57
2023/07/25 03:22:32;;;;;;;6.60;5.85;;;22.00;70.60;;;;;;4957096;28;20027;-59
2023/07/25 03:24:58;;;;;;;5.88;5.15;;;22.10;70.60;;;;;;4953174;29;20086;-59
2023/07/25 03:27:24;;;;;;;5.80;5.18;;;22.10;71.40;;;;;;4953258;29;20023;-59
2023/07/25 03:29:50;;;;;;;6.90;5.88;;;22.10;70.80;;;;;;4953187;29;20413;-59
2023/07/25 03:32:16;;;;;;;6.28;5.53;;;22.20;70.90;;;;;;4953451;29;20090;-59
2023/07/25 03:34:41;;;;;;;6.68;5.60;;;22.20;71.20;;;;;;4952382;29;20023;-59
2023/07/25 03:37:07;;;;;;;5.90;5.22;;;22.30;71.30;;;;;;4953182;29;20100;-60
2023/07/25 03:39:33;;;;;;;6.20;5.10;;;22.40;71.70;;;;;;4953487;29;20432;-60
2023/07/25 03:41:59;;;;;;;6.65;5.45;;;22.60;72.10;;;;;;4953141;29;20023;-60
2023/07/25 03:44:25;;;;;;;6.50;5.53;;;22.80;72.30;;;;;;4952960;29;20028;-60
2023/07/25 03:46:50;;;;;;;6.28;5.43;;;23.00;72.50;;;;;;4953155;29;20038;-60
2023/07/25 03:49:16;;;;;;;5.88;4.93;;;23.20;72.50;;;;;;4953007;29;20035;-60
2023/07/25 03:51:41;;;;;;;5.85;5.25;;;23.50;72.40;;;;;;4952883;29;20042;-60
2023/07/25 03:54:07;;;;;;;7.93;5.50;;;23.90;72.00;;;;;;4953237;29;20483;-60
2023/07/25 03:56:33;;;;;;;6.65;4.80;;;24.40;71.50;;;;;;4952578;28;20032;-59
2023/07/25 03:58:59;;;;;;;6.55;5.07;;;24.80;70.60;;;;;;4953006;29;20038;-60
2023/07/25 04:01:25;;;;;;;6.70;4.35;;;25.50;69.80;;;;;;4952828;29;20039;-59
2023/07/25 04:03:51;;;;;;;5.10;4.30;;;26.20;68.80;;;;;;4952911;29;20028;-60
2023/07/25 04:06:18;;;;;;;5.82;4.50;;;27.10;67.30;;;;;;4952919;29;20123;-60
2023/07/25 04:08:44;;;;;;;4.63;4.10;;;27.90;65.60;;;;;;4952820;29;20487;-60
2023/07/25 04:11:09;;;;;;;4.93;4.35;;;28.80;64.20;;;;;;4952875;29;20099;-60
2023/07/25 04:13:35;;;;;;;6.93;4.32;;;29.60;62.70;;;;;;4952806;29;20039;-60
2023/07/25 04:16:01;;;;;;;6.15;3.72;;;30.50;61.30;;;;;;4952809;29;20041;-59
2023/07/25 04:18:26;;;;;;;5.47;4.40;;;31.20;60.10;;;;;;4952833;28;20034;-60
2023/07/25 04:20:52;;;;;;;5.60;4.40;;;32.00;58.70;;;;;;4938894;29;20027;-59
2023/07/25 04:23:18;;;;;;;4.43;3.50;;;32.70;57.60;;;;;;4956238;29;20448;-60
2023/07/25 04:25:43;;;;;;;3.80;3.40;;;33.40;56.90;;;;;;4956695;29;20024;-59
2023/07/25 04:28:10;;;;;;;6.70;4.30;;;34.00;56.00;;;;;;4971999;28;20515;-60
2023/07/25 04:30:35;;;;;;;5.28;3.72;;;34.60;55.10;;;;;;4975311;28;20035;-61
2023/07/25 04:33:01;;;;;;;5.53;4.07;;;35.20;54.40;;;;;;4975460;28;20084;-60
2023/07/25 04:35:26;;;;;;;4.20;3.80;;;35.70;53.40;;;;;;4975315;28;20364;-60
2023/07/25 04:37:52;;;;;;;7.07;4.10;;;36.10;52.60;;;;;;4975265;28;20037;-60
2023/07/25 04:40:18;;;;;;;4.50;3.58;;;36.60;52.10;;;;;;4975120;28;20394;-60
2023/07/25 04:42:43;;;;;;;4.25;3.80;;;37.00;51.70;;;;;;4975105;28;20502;-60
2023/07/25 04:45:09;;;;;;;4.63;3.70;;;37.40;51.00;;;;;;4975913;28;20051;-61
2023/07/25 04:47:35;;;;;;;4.35;3.67;;;37.80;50.40;;;;;;4975688;28;20054;-62
2023/07/25 04:50:01;;;;;;;4.38;3.80;;;38.10;50.00;;;;;;4975777;28;20194;-61
2023/07/25 04:52:27;;;;;;;4.32;3.60;;;38.40;49.40;;;;;;4975689;28;20105;-61
2023/07/25 04:54:57;;;;;;;4.72;3.58;;;38.70;49.30;;;;;;4975337;28;20042;-60
2023/07/25 04:57:26;;;;;;;4.88;3.70;;;38.90;48.90;;;;;;4974797;28;20062;-61
2023/07/25 04:59:52;;;;;;;3.72;3.35;;;39.10;48.40;;;;;;4975719;28;20391;-59
2023/07/25 05:02:21;;;;;;;5.90;4.07;;;39.40;48.40;;;;;;4975170;28;20097;-60
2023/07/25 05:04:47;;;;;;;;;;;39.50;47.80;;;;;;4975428;28;20503;-61
2023/07/25 05:07:14;;;;;;;5.43;3.42;;;39.60;48.20;;;;;;4974045;28;19914;-61
2023/07/25 05:09:40;;;;;;;4.47;3.42;;;39.80;48.00;;;;;;4968441;28;20030;-60
2023/07/25 05:12:10;;;;;;;4.22;3.65;;;39.90;47.60;;;;;;4974162;28;20026;-60
2023/07/25 05:14:36;;;;;;;5.57;3.42;;;39.80;47.20;;;;;;4976368;28;20023;-60
2023/07/25 05:17:01;;;;;;;4.13;3.42;;;39.80;47.30;;;;;;4975201;28;20022;-60
2023/07/25 05:19:27;;;;;;;4.68;3.83;;;39.60;47.60;;;;;;4975659;28;20066;-60
2023/07/25 05:21:52;;;;;;;4.43;3.83;;;39.60;47.60;;;;;;4976002;28;20447;-60
2023/07/25 05:24:18;;;;;;;3.90;3.30;;;39.50;47.50;;;;;;4976705;28;20027;-63
2023/07/25 05:26:44;;;;;;;4.95;3.90;;;39.40;47.70;;;;;;4975892;28;20114;-64
2023/07/25 05:29:09;;;;;;;3.92;3.53;;;39.30;47.30;;;;;;4973522;28;20023;-62
2023/07/25 05:31:35;;;;;;;4.20;3.58;;;39.40;46.80;;;;;;4972863;28;20100;-62
2023/07/25 05:34:01;;;;;;;5.45;4.28;;;39.20;46.30;;;;;;4974038;28;20081;-63
2023/07/25 05:36:26;;;;;;;4.40;3.72;;;39.00;46.30;;;;;;4974385;28;20027;-63
2023/07/25 05:38:52;;;;;;;4.45;3.90;;;38.50;46.50;;;;;;4974639;28;20158;-63
2023/07/25 05:41:18;;;;;;;5.65;4.30;;;37.80;46.90;;;;;;4974430;28;20122;-60
2023/07/25 05:43:44;;;;;;;4.00;3.60;;;37.10;47.50;;;;;;4974450;28;20054;-62
2023/07/25 05:46:09;;;;;;;4.60;4.10;;;36.40;48.20;;;;;;4973743;28;20027;-60
2023/07/25 05:48:35;;;;;;;5.28;4.10;;;35.70;48.90;;;;;;4974763;28;20121;-60
2023/07/25 05:51:01;;;;;;;4.53;3.88;;;35.00;49.70;;;;;;4974908;28;20030;-60
2023/07/25 05:53:26;;;;;;;4.57;4.00;;;34.40;50.50;;;;;;4974967;28;20387;-60
2023/07/25 05:55:52;;;;;;;4.97;4.30;;;33.90;51.10;;;;;;4975284;28;20042;-60
2023/07/25 05:58:18;;;;;;;5.68;4.57;;;33.40;51.60;;;;;;4975305;28;20053;-60
2023/07/25 06:00:45;;;;;;;4.97;4.20;;;33.00;52.10;;;;;;4975631;28;20034;-60
2023/07/25 06:03:12;;;;;;;6.20;4.47;;;32.60;52.80;;;;;;4975975;28;20134;-60
2023/07/25 06:05:38;;;;;;;5.43;4.35;;;32.30;53.30;;;;;;4975765;28;20058;-60
2023/07/25 06:08:04;;;;;;;6.00;4.47;;;31.90;53.60;;;;;;4974842;28;20018;-60
2023/07/25 06:10:30;;;;;;;5.35;4.65;;;31.70;54.10;;;;;;4974873;28;20019;-61
2023/07/25 06:12:56;;;;;;;6.53;4.22;;;31.50;54.50;;;;;;4974368;28;20114;-59
2023/07/25 06:15:21;;;;;;;4.80;4.30;;;31.30;54.80;;;;;;4967871;28;20546;-57
2023/07/25 06:17:47;;;;;;;5.13;4.38;;;31.10;55.20;;;;;;4976059;28;20487;-59
2023/07/25 06:20:13;;;;;;;6.00;4.60;;;30.90;55.60;;;;;;4972275;28;20038;-58
2023/07/25 06:22:38;;;;;;;5.53;4.50;;;30.70;55.80;;;;;;4967585;28;20034;-60
2023/07/25 06:25:08;;;;;;;5.95;4.30;;;30.50;56.00;;;;;;4964706;28;20027;-61
2023/07/25 06:27:34;;;;;;;5.47;4.78;;;30.40;56.50;;;;;;4966996;28;20031;-60
2023/07/25 06:30:02;;;;;;;5.03;3.92;;;30.20;56.80;;;;;;4972899;28;20106;-60
2023/07/25 06:32:28;;;;;;;8.13;4.90;;;30.10;57.30;;;;;;4964441;28;20081;-60
2023/07/25 06:34:53;;;;;;;8.75;5.05;;;30.10;57.70;;;;;;4971336;28;20054;-60
2023/07/25 06:37:19;;;;;;;4.68;4.25;;;30.00;57.90;;;;;;4973047;28;20118;-60
2023/07/25 06:39:45;;;;;;;8.75;5.20;;;29.90;58.00;;;;;;4972817;28;20031;-59
2023/07/25 06:42:10;;;;;;;6.45;5.13;;;29.80;58.20;;;;;;4972492;28;20161;-60
2023/07/25 06:44:36;;;;;;;8.23;5.10;;;29.80;58.30;;;;;;4973381;28;20077;-60
2023/07/25 06:47:01;;;;;;;7.47;5.50;;;29.70;58.50;;;;;;4973973;28;20031;-60
2023/07/25 06:49:27;;;;;;;8.05;5.30;;;29.70;58.90;;;;;;4973563;28;20027;-59
2023/07/25 06:51:55;;;;;;;9.95;6.63;;;29.60;58.90;;;;;;4974422;28;20025;-60
2023/07/25 06:54:21;;;;;;;14.75;8.85;;;29.60;59.00;;;;;;4965867;28;20027;-60
2023/07/25 06:56:47;;;;;;;13.20;8.63;;;29.60;59.10;;;;;;4970109;28;20054;-59
2023/07/25 06:59:13;;;;;;;15.32;9.48;;;29.50;59.10;;;;;;4973873;28;20030;-59
2023/07/25 07:01:38;;;;;;;20.42;10.90;;;29.50;59.80;;;;;;4973287;28;20026;-59
2023/07/25 07:04:04;;;;;;;19.13;11.55;;;29.40;59.30;;;;;;4971041;28;20037;-60
2023/07/25 07:06:30;;;;;;;19.25;11.85;;;29.40;59.50;;;;;;4969704;28;20491;-59
2023/07/25 07:08:56;;;;;;;19.38;11.30;;;29.50;59.60;;;;;;4982429;28;20085;-60
2023/07/25 07:11:21;;;;;;;11.52;7.53;;;29.40;59.40;;;;;;4975590;28;20015;-60
2023/07/25 07:13:47;;;;;;;10.48;6.40;;;29.40;59.40;;;;;;4971058;28;20042;-60
2023/07/25 07:16:13;;;;;;;7.57;5.45;;;29.40;59.20;;;;;;4972796;28;20552;-60
2023/07/25 07:18:38;;;;;;;16.63;9.60;;;29.40;59.20;;;;;;4970419;28;20458;-59
2023/07/25 07:21:05;;;;;;;16.15;9.77;;;29.40;59.20;;;;;;4968754;28;20054;-60
2023/07/25 07:23:30;;;;;;;22.10;12.93;;;29.40;59.30;;;;;;4962653;28;20026;-60
2023/07/25 07:25:56;;;;;;;25.27;13.77;;;29.30;59.30;;;;;;4965227;28;20065;-59
2023/07/25 07:28:21;;;;;;;32.17;16.77;;;29.30;59.10;;;;;;4972431;28;20378;-60
2023/07/25 07:30:51;;;;;;;28.83;16.02;;;29.30;59.20;;;;;;4969617;28;20034;-59
2023/07/25 07:33:20;;;;;;;20.90;12.65;;;29.40;59.20;;;;;;4964857;28;20105;-60
2023/07/25 07:35:46;;;;;;;20.23;10.90;;;29.30;59.20;;;;;;4971570;28;20053;-60
2023/07/25 07:38:11;;;;;;;17.25;9.98;;;29.30;59.10;;;;;;4968569;28;20019;-59
2023/07/25 07:40:37;;;;;;;18.38;9.05;;;29.30;59.00;;;;;;4963350;28;20027;-60
2023/07/25 07:43:03;;;;;;;17.20;8.40;;;29.30;58.80;;;;;;4960618;28;20024;-60
2023/07/25 07:45:30;;;;;;;17.02;9.48;;;29.40;58.80;;;;;;4968315;28;20030;-60
2023/07/25 07:47:56;;;;;;;17.25;9.18;;;29.40;59.10;;;;;;4967707;28;20443;-60
2023/07/25 07:50:22;;;;;;;16.92;8.38;;;29.40;59.20;;;;;;4969579;28;20561;-61
2023/07/25 07:52:48;;;;;;;11.80;6.28;;;29.40;59.20;;;;;;4968563;28;20035;-60
2023/07/25 07:55:14;;;;;;;8.55;4.85;;;29.40;58.70;;;;;;4973101;28;20031;-59
2023/07/25 07:57:42;;;;;;;7.63;5.65;;;29.40;58.30;;;;;;4973675;28;20066;-60
2023/07/25 08:00:08;;;;;;;9.88;6.65;;;29.40;58.10;;;;;;4968293;28;20390;-60
2023/07/25 08:02:34;;;;;;;8.05;5.10;;;29.40;57.70;;;;;;4968889;28;20027;-59
2023/07/25 08:04:59;;;;;;;15.27;7.50;;;29.40;57.60;;;;;;4969839;28;20037;-59
2023/07/25 08:07:25;;;;;;;11.63;6.32;;;29.40;57.60;;;;;;4974379;28;20031;-59
2023/07/25 08:09:54;;;;;;;13.02;8.63;;;29.40;57.30;;;;;;4966565;28;20507;-59
2023/07/25 08:12:21;;;;;;;8.63;5.45;;;29.50;57.30;;;;;;4970485;28;20091;-59
2023/07/25 08:14:46;;;;;;;7.07;5.25;;;29.50;57.10;;;;;;4970745;28;20031;-59
2023/07/25 08:17:13;;;;;;;6.07;4.50;;;29.50;56.90;;;;;;4975605;28;20044;-59
2023/07/25 08:19:39;;;;;;;6.47;4.10;;;29.50;56.60;;;;;;4973766;28;20109;-58
2023/07/25 08:22:05;;;;;;;6.00;4.75;;;29.50;56.40;;;;;;4976242;28;20462;-59
2023/07/25 08:24:32;;;;;;;5.30;4.07;;;29.50;56.50;;;;;;4971330;28;20023;-60
2023/07/25 08:26:59;;;;;;;6.47;4.75;;;29.50;56.60;;;;;;4969669;28;20043;-60
2023/07/25 08:29:25;;;;;;;9.65;5.38;;;29.50;56.70;;;;;;4973355;28;20022;-59
2023/07/25 08:31:51;;;;;;;7.90;4.97;;;29.50;56.90;;;;;;4975666;28;20022;-59
2023/07/25 08:34:16;;;;;;;6.93;5.03;;;29.50;56.80;;;;;;4979390;28;20089;-59
2023/07/25 08:36:42;;;;;;;6.72;4.47;;;29.50;56.70;;;;;;4979352;28;20027;-59
2023/07/25 08:39:08;;;;;;;6.03;5.18;;;29.50;56.80;;;;;;4977877;28;20042;-59
2023/07/25 08:42:04;;;;;;;8.60;5.25;;;29.60;56.90;;;;;;4980293;28;20027;-60
2023/07/25 08:44:33;;;;;;;6.82;5.13;;;29.60;56.80;;;;;;4971599;28;20385;-60
2023/07/25 08:47:07;;;;;;;6.65;4.95;;;29.60;57.00;;;;;;4973236;28;20019;-60
2023/07/25 08:49:35;;;;;;;6.60;4.30;;;29.60;57.00;;;;;;4968761;28;20035;-62
2023/07/25 08:52:04;;;;;;;5.93;4.32;;;29.70;57.10;;;;;;4975362;28;20395;-61
2023/07/25 08:54:31;;;;;;;5.45;4.40;;;29.70;57.10;;;;;;4974023;28;20054;-60
2023/07/25 08:56:57;;;;;;;5.95;4.70;;;29.70;57.10;;;;;;4954140;28;20048;-61
2023/07/25 08:59:24;;;;;;;6.45;5.10;;;29.70;57.00;;;;;;4963577;28;20068;-61
2023/07/25 09:01:52;;;;;;;8.15;5.40;;;29.70;57.20;;;;;;4962196;28;20019;-60
2023/07/25 09:04:19;;;;;;;5.93;5.03;;;29.70;57.10;;;;;;4969053;28;20045;-60
2023/07/25 09:06:45;;;;;;;5.55;4.78;;;29.70;57.30;;;;;;4971975;28;20037;-60
2023/07/25 09:09:11;;;;;;;6.18;4.70;;;29.70;57.50;;;;;;4966829;28;20480;-60
2023/07/25 09:11:37;;;;;;;7.97;5.28;;;29.70;57.70;;;;;;4966571;28;20030;-59
2023/07/25 09:14:03;;;;;;;6.93;5.32;;;29.60;57.70;;;;;;4963907;28;20673;-60
2023/07/25 09:16:30;;;;;;;9.05;5.50;;;29.60;57.90;;;;;;4951298;28;20492;-60
2023/07/25 09:18:55;;;;;;;6.45;5.18;;;29.60;57.90;;;;;;4961411;28;20122;-59
2023/07/25 09:21:21;;;;;;;6.18;5.22;;;29.60;57.80;;;;;;4975402;28;20053;-60
2023/07/25 09:23:58;;;;;;;6.50;5.28;;;29.60;58.00;;;;;;4966494;28;21408;-59
2023/07/25 09:26:30;;;;;;;6.80;5.70;;;29.60;58.10;;;;;;4968252;28;20419;-60
2023/07/25 09:28:58;;;;;;;6.93;5.05;;;29.50;58.00;;;;;;4967415;28;20408;-60
2023/07/25 09:31:26;;;;;;;7.35;5.97;;;29.50;58.20;;;;;;4960266;28;20031;-59
2023/07/25 09:33:54;;;;;;;7.85;6.07;;;29.50;58.50;;;;;;4973023;28;20383;-58
2023/07/25 09:36:20;;;;;;;6.80;5.85;;;29.50;58.50;;;;;;4980324;28;20125;-59
2023/07/25 09:38:50;;;;;;;6.38;5.50;;;29.50;58.50;;;;;;4974785;28;20114;-61
2023/07/25 09:41:17;;;;;;;6.93;5.40;;;29.50;58.60;;;;;;4961865;28;20100;-58
2023/07/25 09:43:43;;;;;;;8.30;6.20;;;29.50;58.60;;;;;;4962306;28;20035;-59
2023/07/25 09:46:09;;;;;;;9.38;6.18;;;29.50;58.80;;;;;;4961315;28;20447;-59
2023/07/25 09:48:34;;;;;;;11.10;6.68;;;29.50;58.90;;;;;;4957905;28;20127;-59
2023/07/25 09:51:02;;;;;;;7.53;6.07;;;29.50;59.10;;;;;;4962782;28;20827;-59
2023/07/25 09:53:29;;;;;;;7.05;5.20;;;29.50;59.00;;;;;;4965466;28;20115;-58
2023/07/25 09:55:55;;;;;;;8.02;4.88;;;29.50;58.90;;;;;;4966334;28;20043;-59
2023/07/25 09:58:21;;;;;;;7.70;5.22;;;29.50;58.80;;;;;;4967084;28;20062;-58
2023/07/25 10:00:48;;;;;;;7.35;4.70;;;29.50;58.60;;;;;;4965957;28;20133;-59
2023/07/25 10:03:14;;;;;;;6.63;4.65;;;29.50;58.70;;;;;;4956073;28;20034;-60
2023/07/25 10:05:44;;;;;;;5.70;4.50;;;29.50;58.70;;;;;;4963079;28;20035;-60
2023/07/25 10:08:11;;;;;;;6.97;5.38;;;29.50;58.90;;;;;;4962452;28;20090;-60
2023/07/25 10:10:37;;;;;;;6.78;4.90;;;29.50;59.00;;;;;;4960048;28;20031;-60
2023/07/25 10:13:03;;;;;;;6.63;5.47;;;29.50;59.10;;;;;;4960794;28;20554;-61
2023/07/25 10:15:30;;;;;;;8.18;5.93;;;29.50;59.10;;;;;;4962798;28;20034;-61
2023/07/25 10:18:03;;;;;;;6.72;4.97;;;29.50;59.10;;;;;;4960811;28;20026;-61
2023/07/25 10:20:29;;;;;;;7.80;5.85;;;29.50;59.10;;;;;;4964290;28;20098;-60
2023/07/25 10:23:06;;;;;;;8.18;5.53;;;29.50;59.20;;;;;;4967860;28;20034;-61
2023/07/25 10:25:32;;;;;;;6.60;5.25;;;29.50;59.20;;;;;;4964732;28;20057;-60
2023/07/25 10:27:58;;;;;;;6.65;4.82;;;29.50;59.20;;;;;;4960747;28;20023;-61
2023/07/25 10:30:26;;;;;;;8.68;5.53;;;29.50;59.20;;;;;;4961242;28;20117;-61
2023/07/25 10:32:58;;;;;;;7.18;5.53;;;29.50;59.30;;;;;;4959011;28;20049;-60
2023/07/25 10:35:53;;;;;;;7.65;5.70;;;29.60;59.40;;;;;;4963256;28;20039;-60
2023/07/25 10:38:40;;;;;;;8.02;5.80;;;29.60;59.40;;;;;;4961043;28;20034;-59
2023/07/25 10:41:11;;;;;;;6.68;5.55;;;29.60;59.50;;;;;;4959779;28;20443;-60
2023/07/25 10:43:46;;;;;;;6.97;5.32;;;29.60;59.60;;;;;;4958296;28;20031;-60
2023/07/25 10:46:14;;;;;;;7.43;5.85;;;29.70;59.50;;;;;;4956256;28;20065;-60
2023/07/25 10:48:45;;;;;;;7.30;5.63;;;29.60;59.50;;;;;;4953736;28;20478;-60
2023/07/25 10:51:12;;;;;;;6.53;5.55;;;29.60;59.50;;;;;;4957500;28;20030;-61
2023/07/25 10:53:39;;;;;;;7.85;5.70;;;29.60;59.60;;;;;;4958890;28;20027;-61
2023/07/25 10:56:07;;;;;;;6.53;4.88;;;29.60;59.70;;;;;;4959141;28;20581;-60
2023/07/25 10:58:37;;;;;;;5.78;4.97;;;29.60;59.80;;;;;;4960704;28;20047;-61
2023/07/25 11:01:03;;;;;;;6.63;5.53;;;29.60;59.60;;;;;;4961252;28;20131;-59
2023/07/25 11:03:31;;;;;;;7.20;5.65;;;29.60;59.30;;;;;;4958407;28;20039;-61
2023/07/25 11:06:06;;;;;;;6.10;5.30;;;29.70;59.40;;;;;;4953008;28;20035;-60
2023/07/25 11:08:39;;;;;;;6.30;5.30;;;29.70;59.40;;;;;;4954110;28;20195;-61
2023/07/25 11:11:12;;;;;;;6.90;5.68;;;29.70;59.40;;;;;;4953494;28;20035;-61
2023/07/25 11:13:40;;;;;;;6.90;5.45;;;29.70;59.40;;;;;;4954080;28;20035;-61
2023/07/25 11:16:07;;;;;;;9.38;6.38;;;29.70;59.20;;;;;;4955434;28;20043;-61
2023/07/25 11:18:36;;;;;;;7.80;6.40;;;29.70;59.00;;;;;;4958810;28;20031;-60
2023/07/25 11:21:07;;;;;;;7.72;5.68;;;29.70;58.80;;;;;;4952644;28;20081;-60
2023/07/25 11:23:33;;;;;;;7.07;5.40;;;29.60;58.70;;;;;;4959402;28;20034;-60
2023/07/25 11:26:02;;;;;;;9.00;5.95;;;29.70;58.80;;;;;;4953319;28;20026;-61
2023/07/25 11:28:28;;;;;;;8.70;6.13;;;29.70;58.70;;;;;;4959462;28;20050;-60
2023/07/25 11:30:55;;;;;;;7.68;5.97;;;29.70;58.60;;;;;;4959337;28;20058;-61
2023/07/25 11:33:21;;;;;;;7.40;5.88;;;29.70;58.60;;;;;;4960575;28;20034;-61
2023/07/25 11:35:55;;;;;;;8.13;6.00;;;29.70;58.70;;;;;;4966135;28;20045;-61
2023/07/25 11:38:21;;;;;;;7.75;6.25;;;29.70;58.40;;;;;;4963392;28;20038;-61
2023/07/25 11:40:51;;;;;;;6.65;5.70;;;29.70;58.40;;;;;;4966155;28;20454;-62
2023/07/25 11:43:17;;;;;;;9.82;5.53;;;29.70;58.30;;;;;;4954844;28;20038;-62
2023/07/25 11:45:47;;;;;;;6.45;5.38;;;29.70;58.30;;;;;;4960332;28;20037;-61
2023/07/25 11:48:16;;;;;;;7.30;5.90;;;29.70;58.20;;;;;;4965720;28;20619;-62
2023/07/25 11:50:43;;;;;;;7.15;5.80;;;29.70;58.30;;;;;;4965546;28;20051;-61
2023/07/25 11:53:10;;;;;;;6.55;5.20;;;29.70;58.00;;;;;;4962851;28;20035;-62
2023/07/25 11:55:37;;;;;;;7.53;5.35;;;29.70;57.90;;;;;;4966409;28;20058;-62
2023/07/25 11:58:03;;;;;;;7.75;6.25;;;29.80;57.80;;;;;;4961386;28;20514;-61
2023/07/25 12:00:39;;;;;;;7.57;5.85;;;29.70;57.70;;;;;;4967179;28;20031;-61
2023/07/25 12:03:19;;;;;;;8.48;6.05;;;29.70;58.20;;;;;;4961228;28;20399;-60
2023/07/25 12:05:58;;;;;;;8.88;6.07;;;29.70;57.50;;;;;;4956734;28;20030;-61
2023/07/25 12:08:32;;;;;;;12.63;5.75;;;29.70;57.30;;;;;;4960899;28;20424;-62
2023/07/25 12:11:09;;;;;;;8.15;5.90;;;29.70;57.20;;;;;;4961706;28;20490;-62
2023/07/25 12:13:55;;;;;;;7.07;5.75;;;29.70;57.10;;;;;;4973116;28;20045;-59
2023/07/25 12:16:35;;;;;;;6.75;5.18;;;29.70;57.00;;;;;;4964166;28;20174;-62
2023/07/25 12:19:09;;;;;;;9.63;5.85;;;29.80;57.00;;;;;;4969753;28;20045;-60
2023/07/25 12:21:38;;;;;;;6.38;5.20;;;29.80;56.90;;;;;;4961663;28;20040;-60
2023/07/25 12:24:08;;;;;;;6.70;5.50;;;29.80;56.90;;;;;;4967883;28;20031;-62
2023/07/25 12:26:48;;;;;;;7.22;5.35;;;29.80;56.70;;;;;;4959946;28;20038;-61
2023/07/25 12:29:24;;;;;;;7.07;5.45;;;29.90;56.50;;;;;;4965559;28;20059;-61
2023/07/25 12:31:51;;;;;;;7.82;5.72;;;29.90;56.20;;;;;;4968703;28;20551;-61
2023/07/25 12:34:20;;;;;;;7.57;5.70;;;29.90;56.00;;;;;;4969975;28;20026;-61
2023/07/25 12:36:50;;;;;;;8.68;5.57;;;29.90;55.80;;;;;;4967083;28;20395;-60
2023/07/25 12:39:16;;;;;;;7.85;5.90;;;29.90;55.60;;;;;;4961228;28;20039;-61
2023/07/25 12:41:43;;;;;;;7.72;5.68;;;29.90;55.60;;;;;;4958893;28;20118;-61
2023/07/25 12:44:09;;;;;;;7.65;5.90;;;30.00;55.50;;;;;;4962108;28;20486;-61